Flight Track Log - Related Links

Times and Time Zones

All times are in EDT time to prevent confusion due to time zone crossing. See the QTR109 flight status page for this flight to view local times or setup timezone preferences in your user account.

Time Position Orientation Groundspeed Altitude Reporting Facility
EDT Latitude Longitude Course Direction KTS MPH feet Rate Location/Type
Sun 12:04:43 PM 25.2570 55.3520 114° Southeast  Level FlightAware ADS-B
Sun 12:05:07 PM 25.2580 55.3530 42° Northeast 112 Level FlightAware ADS-B
Sun 12:05:40 PM 25.2600 55.3540 24° Northeast 117 Level FlightAware ADS-B
Sun 12:06:51 PM 25.2590 55.3570 110° East 124 Level FlightAware ADS-B
Sun 12:08:27 PM 25.2540 55.3660 122° Southeast 143 Level FlightAware ADS-B
Sun 12:08:51 PM 25.2530 55.3680 119° Southeast 180 Level FlightAware ADS-B
Sun 12:09:31 PM 25.2510 55.3710 126° Southeast 193 Level FlightAware ADS-B
Sun 12:09:52 PM 25.2500 55.3730 119° Southeast 219 Level FlightAware ADS-B
Sun 12:11:29 PM 25.2470 55.3800 115° Southeast 235 Level FlightAware ADS-B
Sun 12:12:22 PM 25.2480 55.3800 360° North 359 Level FlightAware ADS-B
Sun 12:14:33 PM 25.2650 55.3490 301° West 168 193 1,100 658 Climbing FlightAware ADS-B
Sun 12:14:57 PM 25.2750 55.3320 303° West 174 200 1,700 1,250 Climbing FlightAware ADS-B
Sun 12:15:21 PM 25.2870 55.3120 304° West 185 213 2,100 1,105 Climbing FlightAware ADS-B
Sun 12:16:51 PM 25.2510 55.2040 250° West 278 320 3,800 1,188 Climbing FlightAware ADS-B
Sun 12:17:02 PM 25.2450 55.1900 245° Southwest 290 334 4,100 1,241 Climbing FlightAware ADS-B
Sun 12:17:20 PM 25.2390 55.1580 258° West 310 357 4,400 643 Climbing FlightAware ADS-B
Sun 12:17:30 PM 25.2370 55.1420 262° West 317 365 4,400 1,200 Level FlightAware ADS-B
Sun 12:18:00 PM 25.2310 55.0930 262° West 326 375 5,200 1,900 Climbing FlightAware ADS-B
Sun 12:18:30 PM 25.2240 55.0430 261° West 340 391 6,300 1,607 Climbing FlightAware ADS-B
Sun 12:18:56 PM 25.2180 54.9980 262° West 367 422 6,700 1,855 Climbing FlightAware ADS-B
Sun 12:19:25 PM 25.2110 54.9420 262° West 367 422 8,000 2,455 Climbing FlightAware ADS-B
Sun 12:19:40 PM 25.2070 54.9150 261° West 373 429 8,500 2,533 Climbing FlightAware ADS-B
Sun 12:20:10 PM 25.1990 54.8570 261° West 373 429 9,900 2,486 Climbing FlightAware ADS-B
Sun 12:20:50 PM 25.1890 54.7830 262° West 380 437 11,400 2,143 Climbing FlightAware ADS-B
Sun 12:21:20 PM 25.1920 54.7240 273° West 381 438 12,400 2,229 Climbing FlightAware ADS-B
Sun 12:22:00 PM 25.2090 54.6510 284° West 378 435 14,000 2,084 Climbing FlightAware ADS-B
Sun 12:22:55 PM 25.2340 54.5500 285° West 388 447 15,700 1,895 Climbing FlightAware ADS-B
Sun 12:23:35 PM 25.2510 54.4760 284° West 390 449 17,000 1,786 Climbing FlightAware ADS-B
Sun 12:24:19 PM 25.2740 54.3840 285° West 400 460 18,200 1,551 Climbing FlightAware ADS-B
Sun 12:25:04 PM 25.2940 54.2980 284° West 399 459 19,300 1,109 Climbing FlightAware ADS-B
Sun 12:25:51 PM 25.3090 54.2170 282° West 412 474 19,900 447 Climbing FlightAware ADS-B
Sun 12:26:38 PM 25.3070 54.1040 269° West 414 476 20,000 65 Climbing FlightAware ADS-B
Sun 12:27:23 PM 25.3050 54.0090 269° West 414 476 20,000  Level FlightAware ADS-B
Sun 12:28:05 PM 25.3030 53.9190 269° West 412 474 20,000  Level FlightAware ADS-B
Sun 12:28:51 PM 25.3000 53.8200 268° West 413 475 20,000  Level FlightAware ADS-B
Sun 12:29:22 PM 25.2990 53.7530 269° West 413 475 20,000  Level FlightAware ADS-B
Sun 12:30:07 PM 25.2960 53.6610 268° West 413 475 20,000  Level FlightAware ADS-B
Sun 12:30:59 PM 25.2940 53.5580 269° West 411 473 20,000  Level FlightAware ADS-B
Sun 12:31:39 PM 25.2920 53.4670 269° West 411 473 20,000  Level FlightAware ADS-B
Sun 12:32:25 PM 25.2890 53.3720 268° West 411 473 20,000  Level FlightAware ADS-B
Sun 12:33:05 PM 25.2870 53.2850 269° West 412 474 20,000  Level FlightAware ADS-B
Sun 12:33:45 PM 25.2840 53.2020 268° West 412 474 20,000  Level FlightAware ADS-B
Sun 12:34:28 PM 25.2820 53.1130 269° West 412 474 20,000  Level FlightAware ADS-B
Sun 12:35:23 PM 25.2790 53.0040 268° West 411 473 20,000 -59 Level FlightAware ADS-B
Sun 12:36:09 PM 25.2760 52.8970 268° West 411 473 19,900 -1,364 Descending FlightAware ADS-B
Sun 12:36:51 PM 25.2740 52.8170 268° West 18,700 -2,023 Descending FlightAware ADS-B
Sun 12:37:35 PM 25.2710 52.7220 268° West 393 452 17,000 -2,143 Descending FlightAware ADS-B
Sun 12:38:15 PM 25.2620 52.6500 262° West 390 449 15,700 -2,203 Descending FlightAware ADS-B
Sun 12:38:54 PM 25.2460 52.5680 258° West 388 447 14,100 -2,286 Descending FlightAware ADS-B
Sun 12:39:39 PM 25.2290 52.4830 258° West 374 430 12,500 -1,976 Descending FlightAware ADS-B
Sun 12:40:16 PM 25.2160 52.4170 258° West 365 420 11,400 -1,333 Descending FlightAware ADS-B
Sun 12:41:00 PM 25.2000 52.3360 258° West 337 388 10,700 -973 Descending FlightAware ADS-B
Sun 12:41:30 PM 25.1900 52.2860 258° West 327 376 10,200 -1,200 Descending FlightAware ADS-B
Sun 12:42:00 PM 25.1810 52.2360 259° West 321 369 9,500 -1,418 Descending FlightAware ADS-B
Sun 12:42:25 PM 25.1730 52.1990 257° West 317 365 8,900 -1,418 Descending FlightAware ADS-B
Sun 12:42:55 PM 25.1640 52.1520 258° West 314 361 8,200 -1,440 Descending FlightAware ADS-B
Sun 12:43:15 PM 25.1580 52.1220 258° West 314 361 7,700 -1,292 Descending FlightAware ADS-B
Sun 12:44:00 PM 25.1440 52.0550 257° West 315 362 6,800 -761 Descending FlightAware ADS-B
Sun 12:44:26 PM 25.1370 52.0200 258° West 315 362 6,800 -554 Level FlightAware ADS-B
Sun 12:46:10 PM 25.0430 51.8980 230° Southwest 275 316 5,600 -600 Descending FlightAware ADS-B
Sun 12:46:36 PM 25.0200 51.8700 228° Southwest 275 316 5,500 -600 Descending FlightAware ADS-B
Sun 12:47:50 PM 24.9740 51.7940 236° Southwest 222 255 4,600 -660 Descending FlightAware ADS-B
Sun 12:48:16 PM 24.9860 51.7690 298° West 212 244 4,400 -480 Descending FlightAware ADS-B
Sun 12:48:40 PM 24.9990 51.7490 306° West 206 237 4,200 -429 Descending FlightAware ADS-B
Sun 12:49:12 PM 25.0160 51.7240 307° West 206 237 4,000 -511 Descending FlightAware ADS-B
Sun 12:49:27 PM 25.0270 51.7070 306° West 206 237 3,800 -615 Descending FlightAware ADS-B
Sun 12:49:51 PM 25.0410 51.6860 306° West 205 236 3,600 -469 Descending FlightAware ADS-B
Sun 12:50:31 PM 25.0620 51.6560 308° West 197 227 3,300 -436 Descending FlightAware ADS-B
Sun 12:50:46 PM 25.0730 51.6490 330° Northwest 183 211 3,200 -140 Descending FlightAware ADS-B
Sun 12:51:14 PM 25.0910 51.6380 331° Northwest 183 211 3,200 -400 Level FlightAware ADS-B
Sun 12:51:31 PM 25.1090 51.6320 343° North 162 186 2,900 -583 Descending FlightAware ADS-B
Sun 12:52:26 PM 25.1460 51.6160 339° North 171 197 2,500 -857 Descending FlightAware ADS-B
Sun 12:52:41 PM 25.1590 51.6100 337° Northwest 159 183 1,900 -1,200 Descending FlightAware ADS-B
Sun 12:53:21 PM 25.1880 51.5980 339° North 159 183 1,400 -434 Descending FlightAware ADS-B
Sun 12:54:04 PM 25.2090 51.5880 337° Northwest 142 163 1,300 -740 Descending FlightAware ADS-B
Sun 12:54:34 PM 25.2330 51.5770 337° Northwest 138 159 500 -1,600 Descending FlightAware ADS-B
Sun 12:57:00 PM 25.2611 51.5651 339° North  Level Estimated
Sun 12:58:00 PM 25.2611 51.5651 324° Northwest  Level Estimated
Sun 12:59:00 PM 25.2611 51.5651 324° Northwest  Level Estimated
Sun 01:00:00 PM 25.2611 51.5651 324° Northwest  Level Estimated
Sun 01:01:00 PM 25.2611 51.5651 324° Northwest  Level Estimated
Sun 01:02:00 PM 25.2611 51.5651 324° Northwest  Level Estimated
Sun 01:03:00 PM 25.2611 51.5651 324° Northwest  Level Estimated
Sun 01:04:00 PM 25.2611 51.5651 324° Northwest  Level Estimated

Login

Don't have an account? Register now (free) for customized features, flight alerts, and more!